createdAt,value
2023-09-27T00:09:54.570Z,7.95
2023-09-27T00:19:58.990Z,7.40
2023-09-27T00:30:02.055Z,7.45
2023-09-27T00:40:11.420Z,7.18
2023-09-27T00:50:14.824Z,7.60
2023-09-27T01:00:19.552Z,9.40
2023-09-27T01:10:22.677Z,9.40
2023-09-27T01:20:29.207Z,9.00
2023-09-27T01:30:34.377Z,12.13
2023-09-27T01:40:41.187Z,13.57
2023-09-27T01:50:45.746Z,12.05
2023-09-27T02:10:53.403Z,9.48
2023-09-27T02:20:56.377Z,11.07
2023-09-27T02:31:00.777Z,12.55
2023-09-27T02:41:04.232Z,11.60
2023-09-27T02:51:08.560Z,10.27
2023-09-27T03:01:12.486Z,11.20
2023-09-27T03:11:17.000Z,11.25
2023-09-27T03:21:20.025Z,11.95
2023-09-27T03:31:24.458Z,10.88
2023-09-27T03:41:27.667Z,11.80
2023-09-27T03:51:32.069Z,11.77
2023-09-27T04:01:35.066Z,11.52
2023-09-27T04:11:40.369Z,12.10
2023-09-27T04:21:43.422Z,12.80
2023-09-27T04:31:47.918Z,12.23
2023-09-27T04:41:50.961Z,12.20
2023-09-27T04:51:55.384Z,14.68
2023-09-27T05:01:58.411Z,12.47
2023-09-27T05:12:02.788Z,12.82
2023-09-27T05:22:05.920Z,12.77
2023-09-27T05:32:10.686Z,13.85
2023-09-27T05:42:13.786Z,14.23
2023-09-27T05:52:18.413Z,13.98
2023-09-27T06:12:26.404Z,13.27
2023-09-27T06:32:34.544Z,13.73
2023-09-27T06:42:39.487Z,13.45
2023-09-27T06:52:44.140Z,14.03
2023-09-27T07:12:53.633Z,12.77
2023-09-27T07:33:19.177Z,11.97
2023-09-27T07:43:24.857Z,12.07
2023-09-27T07:53:38.624Z,12.07
2023-09-27T08:03:48.013Z,12.00
2023-09-27T08:13:52.966Z,13.55
2023-09-27T08:23:56.548Z,12.70
2023-09-27T08:34:01.182Z,14.17
2023-09-27T08:44:04.794Z,12.43
2023-09-27T08:54:16.762Z,11.68
2023-09-27T09:04:24.083Z,9.77
2023-09-27T09:14:44.203Z,8.27
2023-09-27T09:24:48.370Z,9.95
2023-09-27T09:35:03.675Z,9.43
2023-09-27T09:45:13.332Z,9.13
2023-09-27T09:55:36.973Z,10.68
2023-09-27T11:06:49.771Z,7.50
2023-09-27T11:27:00.723Z,7.90
2023-09-27T11:37:08.038Z,7.07
2023-09-27T11:47:17.793Z,7.00
2023-09-27T11:57:23.073Z,5.43
2023-09-27T12:07:33.507Z,6.20
2023-09-27T12:17:44.299Z,7.20
2023-09-27T12:27:49.754Z,5.75
2023-09-27T12:38:00.702Z,5.40
2023-09-27T16:51:24.671Z,4.10
2023-09-27T17:01:38.152Z,3.75
2023-09-27T17:21:45.271Z,5.18
2023-09-27T17:31:49.849Z,6.10
2023-09-27T17:41:54.354Z,6.28
2023-09-27T17:51:57.513Z,7.38
2023-09-27T18:02:02.000Z,6.93
2023-09-27T18:12:07.670Z,7.60
2023-09-27T18:22:12.056Z,6.93
2023-09-27T18:32:16.029Z,6.78
2023-09-27T18:42:20.609Z,6.55
2023-09-27T18:52:23.993Z,6.53
2023-09-27T19:02:28.596Z,7.78
2023-09-27T19:12:31.676Z,8.32
2023-09-27T19:22:36.067Z,7.63
2023-09-27T19:32:39.103Z,8.63
2023-09-27T19:42:43.769Z,8.23
2023-09-27T19:52:48.803Z,7.40
2023-09-27T20:02:54.337Z,7.35
2023-09-27T20:12:57.387Z,7.30
2023-09-27T20:23:01.811Z,6.80
2023-09-27T20:33:05.946Z,6.68
2023-09-27T20:43:10.603Z,5.88
2023-09-27T20:53:13.702Z,5.20
2023-09-27T21:03:18.220Z,5.23
2023-09-27T21:13:21.327Z,4.90
2023-09-27T21:23:25.616Z,4.73
2023-09-27T21:33:28.604Z,4.68
2023-09-27T21:43:33.953Z,3.97
2023-09-27T21:53:37.082Z,4.07
2023-09-27T22:03:42.081Z,4.17
2023-09-27T22:13:45.203Z,4.28
2023-09-27T22:23:49.534Z,4.33
2023-09-27T22:33:52.815Z,5.05
2023-09-27T22:43:57.427Z,4.53
2023-09-27T22:54:01.812Z,4.32
2023-09-27T23:04:10.832Z,4.30
2023-09-27T23:14:22.597Z,4.57
2023-09-27T23:24:44.039Z,4.43
2023-09-27T23:34:49.544Z,4.30
2023-09-27T23:44:55.985Z,4.15
2023-09-27T23:55:03.737Z,4.18
